createdAt,value
2018-03-06T00:02:27.245Z,98764.76
2018-03-06T00:04:59.733Z,98767.26
2018-03-06T00:07:32.246Z,98764.73
2018-03-06T00:10:04.903Z,98767.30
2018-03-06T00:12:37.573Z,98764.45
2018-03-06T00:15:10.086Z,98767.44
2018-03-06T00:17:42.707Z,98771.18
2018-03-06T00:20:15.241Z,98757.72
2018-03-06T00:22:47.753Z,98764.44
2018-03-06T00:25:20.250Z,98754.00
2018-03-06T00:27:52.767Z,98750.69
2018-03-06T00:30:25.262Z,98760.72
2018-03-06T00:32:57.771Z,98750.69
2018-03-06T00:35:30.258Z,98753.17
2018-03-06T00:38:03.012Z,98755.26
2018-03-06T00:40:36.293Z,98757.84
2018-03-06T00:43:08.968Z,98759.56
2018-03-06T00:45:41.490Z,98755.37
2018-03-06T00:48:14.007Z,98754.95
2018-03-06T00:50:46.498Z,98750.72
2018-03-06T00:53:19.009Z,98751.97
2018-03-06T00:55:51.503Z,98739.84
2018-03-06T00:58:24.035Z,98738.24
2018-03-06T01:00:56.526Z,98737.94
2018-03-06T01:03:29.035Z,98743.44
2018-03-06T01:06:01.590Z,98741.34
2018-03-06T01:08:34.194Z,98738.79
2018-03-06T01:11:06.828Z,98740.88
2018-03-06T01:13:39.454Z,98732.03
2018-03-06T01:16:11.963Z,98731.16
2018-03-06T01:18:44.558Z,98734.51
2018-03-06T01:21:17.054Z,98738.27
2018-03-06T01:23:49.566Z,98727.02
2018-03-06T01:26:22.064Z,98728.67
2018-03-06T01:28:54.591Z,98732.45
2018-03-06T01:31:27.077Z,98719.94
2018-03-06T01:33:59.586Z,98722.46
2018-03-06T01:36:32.083Z,98720.79
2018-03-06T01:39:04.726Z,98728.30
2018-03-06T01:41:37.551Z,98726.23
2018-03-06T01:44:10.166Z,98719.57
2018-03-06T01:46:42.698Z,98720.52
2018-03-06T01:49:15.226Z,98722.16
2018-03-06T01:51:58.598Z,98722.64
2018-03-06T01:54:31.109Z,98709.23
2018-03-06T01:57:03.718Z,98713.94
2018-03-06T01:59:36.788Z,98704.40
2018-03-06T02:02:09.502Z,98705.17
2018-03-06T02:04:42.109Z,98698.53
2018-03-06T02:07:14.641Z,98694.84
2018-03-06T02:09:47.162Z,98688.03
2018-03-06T02:12:19.660Z,98684.59
2018-03-06T02:14:52.200Z,98676.63
2018-03-06T02:17:24.694Z,98681.25
2018-03-06T02:19:57.202Z,98674.22
2018-03-06T02:22:29.694Z,98673.39
2018-03-06T02:25:02.214Z,98671.22
2018-03-06T02:27:34.776Z,98671.97
2018-03-06T02:30:07.472Z,98672.37
2018-03-06T02:32:40.091Z,98671.08
2018-03-06T02:35:12.660Z,98668.97
2018-03-06T02:37:45.169Z,98673.59
2018-03-06T02:40:17.689Z,98667.39
2018-03-06T02:42:50.182Z,98670.25
2018-03-06T02:45:22.695Z,98671.23
2018-03-06T02:47:55.186Z,98666.14
2018-03-06T02:50:27.699Z,98663.80
2018-03-06T02:53:00.186Z,98667.22
2018-03-06T02:55:32.754Z,98654.63
2018-03-06T02:58:06.990Z,98660.45
2018-03-06T03:00:39.863Z,98653.02
2018-03-06T03:03:12.445Z,98649.27
2018-03-06T03:05:44.986Z,98650.59
2018-03-06T03:08:17.490Z,98652.56
2018-03-06T03:10:49.994Z,98659.27
2018-03-06T03:13:22.486Z,98657.64
2018-03-06T03:15:55.000Z,98654.38
2018-03-06T03:18:27.487Z,98651.78
2018-03-06T03:21:00.001Z,98657.09
2018-03-06T03:23:32.492Z,98670.86
2018-03-06T03:26:05.109Z,98663.23
2018-03-06T03:28:37.726Z,98659.91
2018-03-06T03:31:10.367Z,98662.35
2018-03-06T03:33:42.932Z,98661.47
2018-03-06T03:36:15.564Z,98656.84
2018-03-06T03:38:48.067Z,98650.59
2018-03-06T03:41:20.585Z,98639.63
2018-03-06T03:43:53.074Z,98642.67
2018-03-06T03:46:25.604Z,98636.95
2018-03-06T03:48:58.102Z,98630.77
2018-03-06T03:51:30.626Z,98636.31
2018-03-06T03:54:03.173Z,98632.88
2018-03-06T03:56:36.078Z,98639.05
2018-03-06T03:59:08.609Z,98632.56
2018-03-06T04:01:41.157Z,98639.09
2018-03-06T04:04:13.734Z,98631.02
2018-03-06T04:06:46.262Z,98627.69
2018-03-06T04:09:18.752Z,98632.44
2018-03-06T04:11:51.266Z,98643.20
2018-03-06T04:14:23.758Z,98641.41
2018-03-06T04:16:56.299Z,98639.59
2018-03-06T04:19:28.791Z,98631.15
2018-03-06T04:22:01.302Z,98637.02
2018-03-06T04:24:33.972Z,98636.55
2018-03-06T04:27:06.758Z,98631.98
2018-03-06T04:29:39.848Z,98634.63
2018-03-06T04:32:12.565Z,98628.86
2018-03-06T04:34:45.114Z,98633.14
2018-03-06T04:37:17.690Z,98625.91
2018-03-06T04:39:50.184Z,98632.22
2018-03-06T04:42:22.692Z,98621.75
2018-03-06T04:44:55.190Z,98621.16
2018-03-06T04:47:27.723Z,98626.19
2018-03-06T04:50:00.216Z,98624.52
2018-03-06T04:52:32.738Z,98615.70
2018-03-06T04:55:05.707Z,98626.62
2018-03-06T04:57:38.267Z,98625.95
2018-03-06T05:00:10.871Z,98624.07
2018-03-06T05:02:43.464Z,98620.34
2018-03-06T05:05:16.033Z,98624.19
2018-03-06T05:07:48.556Z,98623.32
2018-03-06T05:10:21.047Z,98619.05
2018-03-06T05:12:53.573Z,98609.05
2018-03-06T05:15:26.071Z,98613.61
2018-03-06T05:17:58.582Z,98616.48
2018-03-06T05:20:31.074Z,98609.20
2018-03-06T05:23:03.693Z,98608.89
2018-03-06T05:25:36.560Z,98595.41
2018-03-06T05:28:09.190Z,98609.30
2018-03-06T05:30:41.732Z,98611.80
2018-03-06T05:33:14.321Z,98605.52
2018-03-06T05:35:46.832Z,98605.82
2018-03-06T05:38:19.602Z,98604.12
2018-03-06T05:40:52.091Z,98607.08
2018-03-06T05:43:24.599Z,98612.03
2018-03-06T05:45:57.094Z,98608.14
2018-03-06T05:48:29.605Z,98603.54
2018-03-06T05:51:02.094Z,98604.80
2018-03-06T05:53:34.912Z,98609.27
2018-03-06T05:56:08.175Z,98607.98
2018-03-06T05:58:40.737Z,98605.39
2018-03-06T06:01:13.248Z,98604.08
2018-03-06T06:03:45.844Z,98607.76
2018-03-06T06:06:18.384Z,98606.80
2018-03-06T06:08:50.910Z,98609.16
2018-03-06T06:11:23.401Z,98608.82
2018-03-06T06:13:55.914Z,98608.49
2018-03-06T06:16:28.443Z,98613.86
2018-03-06T06:19:00.939Z,98605.33
2018-03-06T06:21:33.888Z,98604.39
2018-03-06T06:24:06.680Z,98603.55
2018-03-06T06:26:39.251Z,98607.23
2018-03-06T06:29:11.913Z,98605.48
2018-03-06T06:31:44.428Z,98603.81
2018-03-06T06:34:16.974Z,98605.48
2018-03-06T06:36:49.462Z,98602.55
2018-03-06T06:39:21.955Z,98607.41
2018-03-06T06:41:54.421Z,98604.46
2018-03-06T06:44:26.923Z,98610.61
2018-03-06T06:46:59.395Z,98608.73
2018-03-06T06:49:31.903Z,98601.94
2018-03-06T06:52:04.640Z,98605.75
2018-03-06T06:54:37.203Z,98598.00
2018-03-06T06:57:09.756Z,98596.17
2018-03-06T06:59:42.350Z,98599.09
2018-03-06T07:02:14.974Z,98595.12
2018-03-06T07:04:47.538Z,98603.39
2018-03-06T07:07:20.030Z,98598.84
2018-03-06T07:09:52.521Z,98596.26
2018-03-06T07:12:24.999Z,98598.45
2018-03-06T07:14:57.511Z,98599.09
2018-03-06T07:17:29.989Z,98599.16
2018-03-06T07:20:02.493Z,98600.39
2018-03-06T07:22:35.554Z,98598.89
2018-03-06T07:25:08.513Z,98592.72
2018-03-06T07:27:41.054Z,98596.38
2018-03-06T07:30:13.702Z,98608.73
2018-03-06T07:32:46.297Z,98602.34
2018-03-06T07:35:18.816Z,98605.47
2018-03-06T07:37:51.299Z,98598.63
2018-03-06T07:40:23.789Z,98605.19
2018-03-06T07:42:56.258Z,98604.98
2018-03-06T07:45:28.758Z,98605.53
2018-03-06T07:48:01.230Z,98607.57
2018-03-06T07:50:33.892Z,98606.28
2018-03-06T07:53:06.832Z,98597.91
2018-03-06T07:55:39.578Z,98607.25
2018-03-06T07:58:12.134Z,98601.88
2018-03-06T08:00:44.819Z,98600.41
2018-03-06T08:03:17.402Z,98593.08
2018-03-06T08:05:49.911Z,98584.36
2018-03-06T08:08:22.399Z,98594.20
2018-03-06T08:10:54.949Z,98595.46
2018-03-06T08:13:27.387Z,98591.06
2018-03-06T08:15:59.880Z,98593.88
2018-03-06T08:18:32.395Z,98586.96
2018-03-06T08:21:05.132Z,98578.95
2018-03-06T08:23:38.142Z,98583.98
2018-03-06T08:26:10.764Z,98592.84
2018-03-06T08:28:43.353Z,98584.58
2018-03-06T08:31:15.850Z,98593.59
2018-03-06T08:33:48.343Z,98580.16
2018-03-06T08:36:20.836Z,98584.95
2018-03-06T08:38:53.310Z,98587.92
2018-03-06T08:41:25.812Z,98583.86
2018-03-06T08:43:58.290Z,98587.36
2018-03-06T08:46:30.793Z,98595.38
2018-03-06T08:49:03.270Z,98587.96
2018-03-06T08:51:35.878Z,98593.54
2018-03-06T08:54:08.467Z,98586.86
2018-03-06T08:56:41.047Z,98584.23
2018-03-06T08:59:13.564Z,98585.91
2018-03-06T09:01:46.160Z,98585.59
2018-03-06T09:04:18.634Z,98585.80
2018-03-06T09:06:51.126Z,98591.67
2018-03-06T09:09:23.608Z,98598.89
2018-03-06T09:11:56.106Z,98597.20
2018-03-06T09:14:28.583Z,98594.62
2018-03-06T09:17:01.075Z,98603.81
2018-03-06T09:19:33.765Z,98602.69
2018-03-06T09:22:06.776Z,98595.55
2018-03-06T09:24:39.334Z,98587.95
2018-03-06T09:27:11.962Z,98597.23
2018-03-06T09:29:44.595Z,98591.53
2018-03-06T09:32:17.100Z,98587.19
2018-03-06T09:34:49.580Z,98589.58
2018-03-06T09:37:22.079Z,98589.67
2018-03-06T09:39:54.558Z,98586.77
2018-03-06T09:42:27.053Z,98586.70
2018-03-06T09:44:59.526Z,98577.27
2018-03-06T09:47:32.017Z,98581.93
2018-03-06T09:50:04.663Z,98580.27
2018-03-06T09:52:37.658Z,98582.11
2018-03-06T09:55:10.200Z,98579.39
2018-03-06T09:57:42.755Z,98579.56
2018-03-06T10:00:15.247Z,98574.36
2018-03-06T10:02:47.742Z,98578.05
2018-03-06T10:05:20.279Z,98578.36
2018-03-06T10:07:52.807Z,98579.83
2018-03-06T10:10:25.335Z,98578.33
2018-03-06T10:12:57.853Z,98571.31
2018-03-06T10:15:30.387Z,98579.00
2018-03-06T10:18:02.894Z,98578.89
2018-03-06T10:20:35.696Z,98572.88
2018-03-06T10:23:08.888Z,98575.06
2018-03-06T10:25:41.542Z,98578.27
2018-03-06T10:28:14.109Z,98575.68
2018-03-06T10:30:46.676Z,98573.56
2018-03-06T10:33:19.211Z,98575.75
2018-03-06T10:35:51.742Z,98572.09
2018-03-06T10:38:24.268Z,98571.02
2018-03-06T10:40:56.800Z,98575.34
2018-03-06T10:43:29.310Z,98575.79
2018-03-06T10:46:01.847Z,98571.75
2018-03-06T10:48:34.530Z,98568.42
2018-03-06T10:51:07.167Z,98566.19
2018-03-06T10:53:39.856Z,98562.81
2018-03-06T10:56:12.461Z,98567.62
2018-03-06T10:58:44.979Z,98564.48
2018-03-06T11:01:23.030Z,98562.52
2018-03-06T11:03:55.542Z,98558.02
2018-03-06T11:06:28.034Z,98555.48
2018-03-06T11:09:00.514Z,98555.48
2018-03-06T11:11:33.016Z,98556.56
2018-03-06T11:14:05.649Z,98545.07
2018-03-06T11:16:38.212Z,98545.71
2018-03-06T11:19:10.719Z,98542.49
2018-03-06T11:21:43.348Z,98540.79
2018-03-06T11:24:15.887Z,98539.48
2018-03-06T11:26:48.411Z,98545.73
2018-03-06T11:29:20.891Z,98533.47
2018-03-06T11:31:53.389Z,98538.13
2018-03-06T11:34:25.885Z,98539.92
2018-03-06T11:36:58.379Z,98536.74
2018-03-06T11:39:30.854Z,98535.73
2018-03-06T11:42:03.355Z,98533.69
2018-03-06T11:44:35.943Z,98532.81
2018-03-06T11:47:08.969Z,98531.19
2018-03-06T11:49:41.538Z,98533.09
2018-03-06T11:52:14.069Z,98524.48
2018-03-06T11:54:46.555Z,98521.66
2018-03-06T11:57:19.045Z,98522.58
2018-03-06T11:59:51.514Z,98514.19
2018-03-06T12:02:24.006Z,98515.94
2018-03-06T12:04:56.592Z,98511.12
2018-03-06T12:07:29.099Z,98511.20
2018-03-06T12:10:01.576Z,98508.11
2018-03-06T12:12:34.123Z,98515.99
2018-03-06T12:15:06.869Z,98509.92
2018-03-06T12:17:39.519Z,98508.83
2018-03-06T12:20:12.089Z,98505.58
2018-03-06T12:22:44.611Z,98513.12
2018-03-06T12:25:17.092Z,98513.53
2018-03-06T12:27:49.587Z,98505.17
2018-03-06T12:30:22.069Z,98497.72
2018-03-06T12:32:54.571Z,98488.53
2018-03-06T12:35:27.042Z,98492.09
2018-03-06T12:37:59.546Z,98493.55
2018-03-06T12:40:32.019Z,98493.34
2018-03-06T12:43:04.775Z,98497.17
2018-03-06T12:45:37.306Z,98490.68
2018-03-06T12:48:09.868Z,98492.36
2018-03-06T12:50:42.370Z,98493.04
2018-03-06T12:53:14.861Z,98483.77
2018-03-06T12:55:47.335Z,98482.09
2018-03-06T12:58:19.821Z,98476.70
2018-03-06T13:00:52.295Z,98484.40
2018-03-06T13:03:24.794Z,98473.97
2018-03-06T13:05:57.272Z,98473.10
2018-03-06T13:08:29.758Z,98474.01
2018-03-06T13:11:02.230Z,98470.27
2018-03-06T13:13:34.773Z,98469.98
2018-03-06T13:16:07.314Z,98472.55
2018-03-06T13:18:39.941Z,98474.19
2018-03-06T13:21:12.503Z,98468.73
2018-03-06T13:23:44.990Z,98469.36
2018-03-06T13:26:17.470Z,98466.38
2018-03-06T13:28:49.965Z,98467.63
2018-03-06T13:31:22.447Z,98465.59
2018-03-06T13:33:54.943Z,98465.30
2018-03-06T13:36:27.441Z,98466.18
2018-03-06T13:38:59.933Z,98469.44
2018-03-06T13:41:32.406Z,98465.42
2018-03-06T13:44:05.017Z,98462.90
2018-03-06T13:46:37.566Z,98464.05
2018-03-06T13:49:10.118Z,98463.42
2018-03-06T13:51:42.650Z,98450.41
2018-03-06T13:54:15.146Z,98450.98
2018-03-06T13:56:47.658Z,98452.36
2018-03-06T13:59:20.134Z,98453.80
2018-03-06T14:01:52.638Z,98444.87
2018-03-06T14:04:25.114Z,98441.61
2018-03-06T14:06:57.610Z,98440.80
2018-03-06T14:09:30.082Z,98446.02
2018-03-06T14:12:02.596Z,98442.36
2018-03-06T14:14:35.184Z,98445.25
2018-03-06T14:17:07.771Z,98442.95
2018-03-06T14:19:40.264Z,98438.36
2018-03-06T14:22:12.772Z,98438.17
2018-03-06T14:24:45.237Z,98434.22
2018-03-06T14:27:17.731Z,98436.98
2018-03-06T14:29:50.197Z,98438.31
2018-03-06T14:32:22.698Z,98438.55
2018-03-06T14:34:55.166Z,98428.61
2018-03-06T14:37:27.679Z,98434.37
2018-03-06T14:40:00.145Z,98430.16
2018-03-06T14:42:32.640Z,98434.81
2018-03-06T14:45:05.195Z,98431.02
2018-03-06T14:47:37.751Z,98438.38
2018-03-06T14:50:10.261Z,98432.81
2018-03-06T14:52:42.780Z,98428.55
2018-03-06T14:55:15.256Z,98434.55
2018-03-06T14:57:47.748Z,98437.05
2018-03-06T15:00:20.230Z,98431.19
2018-03-06T15:02:52.722Z,98427.88
2018-03-06T15:05:25.188Z,98431.92
2018-03-06T15:07:57.686Z,98420.98
2018-03-06T15:10:30.169Z,98425.98
2018-03-06T15:13:02.667Z,98437.92
2018-03-06T15:15:35.266Z,98433.11
2018-03-06T15:18:07.850Z,98430.61
2018-03-06T15:20:40.379Z,98435.11
2018-03-06T15:23:12.922Z,98431.87
2018-03-06T15:25:45.409Z,98436.30
2018-03-06T15:28:17.903Z,98429.14
2018-03-06T15:30:50.391Z,98430.32
2018-03-06T15:33:22.883Z,98426.70
2018-03-06T15:35:55.354Z,98425.06
2018-03-06T15:38:27.850Z,98422.43
2018-03-06T15:41:00.328Z,98424.33
2018-03-06T15:43:32.849Z,98420.83
2018-03-06T15:46:05.474Z,98424.30
2018-03-06T15:48:38.045Z,98423.97
2018-03-06T15:51:10.586Z,98428.20
2018-03-06T15:53:43.131Z,98414.48
2018-03-06T15:56:15.626Z,98415.06
2018-03-06T15:58:48.123Z,98417.52
2018-03-06T16:01:20.598Z,98423.02
2018-03-06T16:03:53.087Z,98419.53
2018-03-06T16:06:25.561Z,98423.33
2018-03-06T16:08:58.058Z,98418.06
2018-03-06T16:11:30.538Z,98424.02
2018-03-06T16:14:03.038Z,98422.92
2018-03-06T16:16:35.571Z,98425.06
2018-03-06T16:19:08.091Z,98426.25
2018-03-06T16:21:40.631Z,98420.52
2018-03-06T16:24:13.158Z,98423.47
2018-03-06T16:26:45.652Z,98424.47
2018-03-06T16:29:18.138Z,98423.45
2018-03-06T16:31:50.614Z,98427.58
2018-03-06T16:34:23.100Z,98434.67
2018-03-06T16:36:55.570Z,98439.41
2018-03-06T16:39:28.065Z,98443.88
2018-03-06T16:42:00.538Z,98446.30
2018-03-06T16:44:33.032Z,98446.55
2018-03-06T16:47:05.538Z,98451.92
2018-03-06T16:49:38.110Z,98456.63
2018-03-06T16:52:10.597Z,98459.88
2018-03-06T16:54:43.136Z,98460.41
2018-03-06T16:57:15.622Z,98460.56
2018-03-06T16:59:48.418Z,98471.50
2018-03-06T17:02:20.935Z,98468.09
2018-03-06T17:04:53.467Z,98475.58
2018-03-06T17:07:26.007Z,98472.16
2018-03-06T17:09:58.513Z,98482.52
2018-03-06T17:12:31.057Z,98476.81
2018-03-06T17:15:03.667Z,98478.12
2018-03-06T17:17:36.202Z,98474.92
2018-03-06T17:20:08.731Z,98480.30
2018-03-06T17:22:41.275Z,98474.19
2018-03-06T17:25:13.792Z,98471.45
2018-03-06T17:27:46.273Z,98481.00
2018-03-06T17:30:18.763Z,98478.68
2018-03-06T17:32:51.245Z,98485.52
2018-03-06T17:35:23.751Z,98481.27
2018-03-06T17:37:56.227Z,98491.06
2018-03-06T17:40:28.727Z,98485.11
2018-03-06T17:43:01.194Z,98486.01
2018-03-06T17:45:33.706Z,98481.90
2018-03-06T17:48:06.287Z,98480.28
2018-03-06T17:50:38.793Z,98486.97
2018-03-06T17:53:11.302Z,98485.70
2018-03-06T17:55:43.826Z,98494.40
2018-03-06T17:58:16.294Z,98497.71
2018-03-06T18:00:48.788Z,98496.66
2018-03-06T18:03:21.262Z,98494.88
2018-03-06T18:05:53.765Z,98496.45
2018-03-06T18:08:26.230Z,98499.87
2018-03-06T18:10:58.718Z,98495.22
2018-03-06T18:13:31.183Z,98498.16
2018-03-06T18:16:03.703Z,98495.97
2018-03-06T18:18:36.230Z,98498.37
2018-03-06T18:21:08.863Z,98502.82
2018-03-06T18:23:41.374Z,98499.33
2018-03-06T18:26:14.036Z,98500.86
2018-03-06T18:28:46.581Z,98504.63
2018-03-06T18:31:19.066Z,98495.48
2018-03-06T18:33:51.564Z,98502.75
2018-03-06T18:36:24.041Z,98502.78
2018-03-06T18:38:56.534Z,98507.65
2018-03-06T18:41:29.064Z,98505.80
2018-03-06T18:44:01.557Z,98503.50
2018-03-06T18:46:34.118Z,98511.20
2018-03-06T18:49:06.658Z,98504.53
2018-03-06T18:51:39.200Z,98504.12
2018-03-06T18:54:11.933Z,98500.55
2018-03-06T18:56:44.443Z,98502.16
2018-03-06T18:59:16.930Z,98496.65
2018-03-06T19:05:07.185Z,98495.96
2018-03-06T19:07:39.677Z,98494.80
2018-03-06T19:10:12.313Z,98497.11
2018-03-06T19:12:44.805Z,98494.91
2018-03-06T19:15:17.324Z,98492.61
2018-03-06T19:17:49.809Z,98491.70
2018-03-06T19:20:22.413Z,98485.37
2018-03-06T19:22:54.980Z,98490.78
2018-03-06T19:25:27.509Z,98490.33
2018-03-06T19:28:00.007Z,98489.55
2018-03-06T19:30:32.524Z,98484.55
2018-03-06T19:33:05.023Z,98481.00
2018-03-06T19:35:37.528Z,98478.16
2018-03-06T19:38:10.039Z,98483.63
2018-03-06T19:40:42.602Z,98481.51
2018-03-06T19:43:15.093Z,98481.25
2018-03-06T19:45:47.615Z,98482.62
2018-03-06T19:48:20.121Z,98479.83
2018-03-06T19:50:52.649Z,98473.98
2018-03-06T19:53:25.249Z,98479.86
2018-03-06T19:55:57.772Z,98477.36
2018-03-06T19:58:30.273Z,98471.28
2018-03-06T20:01:02.964Z,98475.91
2018-03-06T20:03:35.463Z,98473.44
2018-03-06T20:06:07.981Z,98475.64
2018-03-06T20:08:40.478Z,98472.03
2018-03-06T20:11:12.994Z,98474.69
2018-03-06T20:13:45.492Z,98476.42
2018-03-06T20:16:18.025Z,98474.36
2018-03-06T20:18:55.943Z,98473.48
2018-03-06T20:21:28.467Z,98477.30
2018-03-06T20:24:06.695Z,98485.07
2018-03-06T20:26:39.346Z,98482.25
2018-03-06T20:29:11.837Z,98478.22
2018-03-06T20:31:49.970Z,98483.87
2018-03-06T20:34:22.464Z,98484.83
2018-03-06T20:36:54.969Z,98489.16
2018-03-06T20:39:32.998Z,98488.72
2018-03-06T20:42:05.563Z,98484.02
2018-03-06T20:44:38.058Z,98482.02
2018-03-06T20:47:27.243Z,98483.77
2018-03-06T20:49:59.738Z,98483.50
2018-03-06T20:52:38.051Z,98489.44
2018-03-06T20:55:11.325Z,98491.50
2018-03-06T20:57:43.833Z,98485.73
2018-03-06T21:00:16.353Z,98481.23
2018-03-06T21:02:48.862Z,98481.41
2018-03-06T21:05:21.362Z,98480.25
2018-03-06T21:07:53.882Z,98478.19
2018-03-06T21:10:26.382Z,98481.19
2018-03-06T21:12:58.888Z,98471.98
2018-03-06T21:15:31.381Z,98477.06
2018-03-06T21:18:03.905Z,98469.55
2018-03-06T21:20:36.399Z,98468.36
2018-03-06T21:23:08.929Z,98470.47
2018-03-06T21:25:41.422Z,98468.45
2018-03-06T21:28:13.960Z,98468.86
2018-03-06T21:30:46.449Z,98469.32
2018-03-06T21:33:18.966Z,98463.42
2018-03-06T21:35:51.462Z,98467.23
2018-03-06T21:38:23.964Z,98469.80
2018-03-06T21:40:56.453Z,98471.22
2018-03-06T21:43:28.966Z,98464.22
2018-03-06T21:46:01.482Z,98470.14
2018-03-06T21:48:34.001Z,98463.91
2018-03-06T21:51:06.517Z,98469.86
2018-03-06T21:53:39.017Z,98467.78
2018-03-06T21:56:11.533Z,98467.83
2018-03-06T21:58:44.024Z,98475.02
2018-03-06T22:01:16.542Z,98462.42
2018-03-06T22:03:49.036Z,98460.36
2018-03-06T22:06:21.549Z,98462.94
2018-03-06T22:08:54.052Z,98464.72
2018-03-06T22:11:26.562Z,98461.86
2018-03-06T22:13:59.063Z,98455.45
2018-03-06T22:16:31.578Z,98459.70
2018-03-06T22:19:04.077Z,98459.31
2018-03-06T22:21:36.594Z,98464.28
2018-03-06T22:24:09.085Z,98458.44
2018-03-06T22:26:41.603Z,98458.00
2018-03-06T22:29:14.098Z,98463.88
2018-03-06T22:31:46.615Z,98467.16
2018-03-06T22:34:19.104Z,98460.41
2018-03-06T22:36:51.614Z,98462.06
2018-03-06T22:39:24.112Z,98459.48
2018-03-06T22:41:56.633Z,98460.39
2018-03-06T22:44:29.120Z,98465.03
2018-03-06T22:47:01.630Z,98461.22
2018-03-06T22:49:34.121Z,98459.89
2018-03-06T22:52:06.628Z,98460.67
2018-03-06T22:54:39.116Z,98464.38
2018-03-06T22:57:11.620Z,98461.47
2018-03-06T22:59:44.108Z,98462.31
2018-03-06T23:02:16.623Z,98463.47
2018-03-06T23:04:49.114Z,98462.13
2018-03-06T23:07:21.634Z,98470.53
2018-03-06T23:09:54.132Z,98467.13
2018-03-06T23:12:26.646Z,98465.40
2018-03-06T23:14:59.133Z,98461.88
2018-03-06T23:17:31.646Z,98468.88
2018-03-06T23:20:04.138Z,98475.42
2018-03-06T23:22:36.651Z,98476.22
2018-03-06T23:25:09.142Z,98477.51
2018-03-06T23:27:41.658Z,98475.45
2018-03-06T23:30:14.148Z,98478.44
2018-03-06T23:32:46.677Z,98482.25
2018-03-06T23:35:19.169Z,98481.05
2018-03-06T23:37:51.681Z,98479.73
2018-03-06T23:40:24.168Z,98482.94
2018-03-06T23:42:56.686Z,98488.35
2018-03-06T23:45:29.186Z,98487.77
2018-03-06T23:48:01.715Z,98485.58
2018-03-06T23:50:34.207Z,98482.64
2018-03-06T23:53:06.721Z,98478.82
2018-03-06T23:55:39.214Z,98481.67
2018-03-06T23:58:11.727Z,98482.71
